Time;durP1;ratioP1;P1;durP2;ratioP2;P2;SDS_P1;SDS_P2;PMS_P1;PMS_P2;Temp;Humidity;BMP_temperature;BMP_pressure;BME280_temperature;BME280_humidity;BME280_pressure;Samples;Min_cycle;Max_cycle;Signal;HPM_P1;HPM_P2
2022/10/26 00:01:08;84388.00;0.28;146.62;0.00;0.00;0.62;;;;;18.40;2.60;;;;;;2284433;60;1069;-87
2022/10/26 00:03:36;103392.00;0.34;179.43;0.00;0.00;0.62;;;;;18.30;1.00;;;;;;2284388;60;1565;-87
2022/10/26 00:06:05;8389.00;0.03;15.16;0.00;0.00;0.62;;;;;18.40;3.20;;;;;;2284428;60;1289;-87
2022/10/26 00:08:32;28673.00;0.10;50.29;0.00;0.00;0.62;;;;;18.40;1.50;;;;;;2284075;60;1101;-89
2022/10/26 00:10:59;240661.00;0.80;415.89;36424.00;0.12;63.70;;;;;18.40;1.00;;;;;;2284361;60;1990;-88
2022/10/26 00:13:26;51564.00;0.17;89.89;0.00;0.00;0.62;;;;;18.30;2.20;;;;;;2284396;60;942;-88
2022/10/26 00:15:55;231693.00;0.77;400.46;34764.00;0.12;60.83;;;;;18.30;2.20;;;;;;2284321;60;1370;-88
2022/10/26 00:18:22;66722.00;0.22;116.10;0.00;0.00;0.62;;;;;18.10;1.70;;;;;;2284351;60;1684;-88
2022/10/26 00:20:49;102573.00;0.34;178.01;0.00;0.00;0.62;;;;;18.30;3.10;;;;;;2284351;60;1123;-87
2022/10/26 00:23:16;37018.00;0.12;64.73;0.00;0.00;0.62;;;;;18.40;3.80;;;;;;2284291;60;1616;-88
2022/10/26 00:25:43;108008.00;0.36;187.39;41867.00;0.14;73.12;;;;;18.30;2.60;;;;;;2284655;60;1354;-87
2022/10/26 00:28:09;18249.00;0.06;32.24;0.00;0.00;0.62;;;;;18.50;3.40;;;;;;2284978;60;1068;-88
2022/10/26 00:30:39;182328.00;0.61;315.50;0.00;0.00;0.62;;;;;18.40;1.00;;;;;;2285024;60;1907;-90
2022/10/26 00:33:12;41001.00;0.14;71.62;0.00;0.00;0.62;;;;;18.20;2.40;;;;;;2285066;60;1052;-89
2022/10/26 00:35:40;243222.00;0.81;420.29;77725.00;0.26;135.11;;;;;18.20;3.30;;;;;;2285052;60;1332;-88
2022/10/26 00:38:06;168769.00;0.56;292.15;71940.00;0.24;125.11;;;;;18.50;3.80;;;;;;2284978;60;1117;-86
2022/10/26 00:40:33;179248.00;0.60;310.19;81297.00;0.27;141.28;;;;;18.40;1.80;;;;;;2285025;60;1146;-87
2022/10/26 00:43:01;168959.00;0.56;292.47;74700.00;0.25;129.88;;;;;18.60;2.00;;;;;;2285007;60;2112;-89
2022/10/26 00:45:30;232730.00;0.78;402.25;60102.00;0.20;104.65;;;;;18.30;1.70;;;;;;2284986;60;1391;-88
2022/10/26 00:47:59;626972.00;2.09;1080.82;237685.00;0.79;410.77;;;;;18.40;3.20;;;;;;2285026;60;923;-89
2022/10/26 00:50:32;292141.00;0.97;504.41;63232.00;0.21;110.06;;;;;18.50;2.50;;;;;;2284956;60;2004;-88
2022/10/26 00:53:03;164367.00;0.55;284.56;69416.00;0.23;120.75;;;;;18.50;3.10;;;;;;2285011;60;1100;-89
2022/10/26 00:55:34;251860.00;0.84;435.15;62792.00;0.21;109.30;;;;;18.50;2.20;;;;;;2284825;60;1866;-88
2022/10/26 00:58:04;513909.00;1.71;885.77;183097.00;0.61;316.82;;;;;18.50;1.60;;;;;;2284979;60;1547;-87
2022/10/26 01:00:31;223522.00;0.75;386.40;68152.00;0.23;118.57;;;;;18.30;3.20;;;;;;2284989;60;1292;-87
2022/10/26 01:03:04;238686.00;0.80;412.49;62699.00;0.21;109.14;;;;;18.40;2.20;;;;;;2284950;60;1029;-87
2022/10/26 01:05:36;205454.00;0.68;355.31;77436.00;0.26;134.61;;;;;18.40;1.90;;;;;;2284966;60;1466;-90
2022/10/26 01:08:04;215803.00;0.72;373.12;73275.00;0.24;127.42;;;;;18.60;2.10;;;;;;2284926;60;1130;-87
2022/10/26 01:10:32;555537.00;1.85;957.51;132430.00;0.44;229.52;;;;;18.70;3.30;;;;;;2284948;60;1986;-87
2022/10/26 01:13:00;327570.00;1.09;565.31;68241.00;0.23;118.72;;;;;18.50;2.80;;;;;;2284919;60;1081;-87
2022/10/26 01:15:35;253564.00;0.85;438.08;73832.00;0.25;128.38;;;;;18.60;1.40;;;;;;2284736;60;1890;-87
2022/10/26 01:18:10;126109440.00;420.36;81256456.00;44185.00;0.15;77.13;;;;;18.00;3.00;;;;;;2284863;60;1065;-86
2022/10/26 01:21:13;357980.00;1.19;617.58;70010.00;0.23;121.78;;;;;18.00;3.50;;;;;;2284931;60;1108;-88
2022/10/26 01:23:59;292584.00;0.98;505.17;0.00;0.00;0.62;;;;;18.00;5.20;;;;;;2284915;60;921;-87
2022/10/26 01:26:53;135438896.00;451.46;100678568.00;0.00;0.00;0.62;;;;;18.00;4.50;;;;;;2284799;60;1342;-85
2022/10/26 01:29:48;111299.00;0.37;193.07;0.00;0.00;0.62;;;;;18.30;2.90;;;;;;2284863;60;1476;-86
2022/10/26 01:32:24;19503.00;0.07;34.41;0.00;0.00;0.62;;;;;18.20;3.70;;;;;;2284851;60;1991;-87
2022/10/26 01:35:00;169845.00;0.57;294.00;0.00;0.00;0.62;;;;;18.30;3.90;;;;;;2284868;60;1377;-89
2022/10/26 01:37:31;171222.00;0.57;296.37;0.00;0.00;0.62;;;;;18.50;3.40;;;;;;2284607;60;1027;-89
2022/10/26 01:40:06;228913.00;0.76;395.68;0.00;0.00;0.62;;;;;18.30;2.90;;;;;;2284823;60;1702;-87
2022/10/26 01:42:49;335169.00;1.12;578.37;0.00;0.00;0.62;;;;;18.40;4.00;;;;;;2284850;60;1093;-87
2022/10/26 01:45:17;60699.00;0.20;105.69;0.00;0.00;0.62;;;;;18.60;3.90;;;;;;2284797;60;1458;-86
2022/10/26 01:47:48;197542.00;0.66;341.69;39054.00;0.13;68.25;;;;;18.30;3.00;;;;;;2293406;55;3735;-87
2022/10/26 01:50:16;176550.00;0.59;305.55;0.00;0.00;0.62;;;;;18.30;3.80;;;;;;2280692;61;1926;-87
2022/10/26 01:52:43;326727.00;1.09;563.86;0.00;0.00;0.62;;;;;18.20;3.10;;;;;;2280564;61;1093;-90
2022/10/26 01:55:43;208983.00;0.70;361.39;0.00;0.00;0.62;;;;;17.80;3.20;;;;;;2311614;39;3735;-86
2022/10/26 01:58:32;140761.00;0.47;243.88;0.00;0.00;0.62;;;;;17.60;4.40;;;;;;2284788;60;1008;-89
2022/10/26 02:01:13;0.00;0.00;0.62;0.00;0.00;0.62;;;;;17.80;4.60;;;;;;2284806;60;1022;-87
2022/10/26 02:03:48;65469.00;0.22;113.93;0.00;0.00;0.62;;;;;18.10;4.80;;;;;;2284764;60;1460;-88
2022/10/26 02:06:25;329693.00;1.10;568.96;28652.00;0.10;50.25;;;;;17.90;2.80;;;;;;2284736;60;1538;-87
2022/10/26 02:09:09;118094.00;0.39;204.79;0.00;0.00;0.62;;;;;17.70;4.50;;;;;;2284788;60;2223;-88
2022/10/26 02:11:40;82481.00;0.27;143.32;0.00;0.00;0.62;;;;;17.60;3.50;;;;;;2284746;60;1978;-87
2022/10/26 02:14:16;56821.00;0.19;98.98;0.00;0.00;0.62;;;;;17.60;5.10;;;;;;2284758;60;1134;-87
2022/10/26 02:16:52;341311.00;1.14;588.93;95388.00;0.32;165.61;;;;;18.00;4.90;;;;;;2284724;60;1497;-89
2022/10/26 02:19:32;0.00;0.00;0.62;0.00;0.00;0.62;;;;;18.00;3.70;;;;;;2284678;60;933;-89
2022/10/26 02:22:08;154830.00;0.52;268.13;0.00;0.00;0.62;;;;;17.90;4.60;;;;;;2284694;60;1085;-87
2022/10/26 02:24:37;185390.00;0.62;320.77;0.00;0.00;0.62;;;;;17.90;4.60;;;;;;2284758;60;1087;-86
2022/10/26 02:27:08;200935.00;0.67;347.53;0.00;0.00;0.62;;;;;18.00;4.70;;;;;;2284696;60;1254;-87
2022/10/26 02:29:36;225298.00;0.75;389.46;0.00;0.00;0.62;;;;;18.20;4.90;;;;;;2284699;60;1033;-88
2022/10/26 02:32:05;185497.00;0.62;320.96;0.00;0.00;0.62;;;;;18.10;4.90;;;;;;2284706;60;1984;-86
2022/10/26 02:34:40;188275.00;0.63;325.74;0.00;0.00;0.62;;;;;18.00;4.70;;;;;;2284643;60;1408;-86
2022/10/26 02:37:08;148526.00;0.50;257.27;0.00;0.00;0.62;;;;;18.00;5.30;;;;;;2284671;60;1418;-88
2022/10/26 02:39:39;228365.00;0.76;394.74;0.00;0.00;0.62;;;;;18.00;5.10;;;;;;2284670;60;1075;-88
2022/10/26 02:42:09;135092.00;0.45;234.11;0.00;0.00;0.62;;;;;18.10;4.80;;;;;;2284608;60;1560;-88
2022/10/26 02:44:42;46364.00;0.15;80.90;0.00;0.00;0.62;;;;;17.90;4.60;;;;;;2284662;60;1688;-89
2022/10/26 02:47:09;370306.00;1.23;638.76;0.00;0.00;0.62;;;;;17.90;5.20;;;;;;2284551;60;1760;-88
2022/10/26 02:49:38;0.00;0.00;0.62;0.00;0.00;0.62;;;;;17.80;5.50;;;;;;2284664;60;983;-86
2022/10/26 02:52:12;112989.00;0.38;195.99;0.00;0.00;0.62;;;;;17.90;4.60;;;;;;2284528;60;1926;-88
2022/10/26 02:54:49;0.00;0.00;0.62;0.00;0.00;0.62;;;;;18.00;4.70;;;;;;2284394;60;1106;-88
2022/10/26 02:57:20;51358.00;0.17;89.53;0.00;0.00;0.62;;;;;18.20;4.40;;;;;;2284552;60;1563;-88
2022/10/26 02:59:49;37388.00;0.12;65.37;0.00;0.00;0.62;;;;;18.30;4.90;;;;;;2284605;60;1053;-86
2022/10/26 03:02:19;3091.00;0.01;5.98;0.00;0.00;0.62;;;;;18.00;3.90;;;;;;2284636;60;1060;-89
2022/10/26 03:04:50;238830.00;0.80;412.74;47977.00;0.16;83.69;;;;;17.70;4.40;;;;;;2284577;60;1308;-87
2022/10/26 03:07:21;141126.00;0.47;244.51;0.00;0.00;0.62;;;;;17.50;4.30;;;;;;2284499;60;1139;-87
2022/10/26 03:09:48;260493.00;0.87;450.00;0.00;0.00;0.62;;;;;17.30;5.10;;;;;;2284633;60;1056;-88
2022/10/26 03:12:15;162581.00;0.54;281.49;0.00;0.00;0.62;;;;;17.40;5.50;;;;;;2284591;60;1980;-87
2022/10/26 03:14:42;162290.00;0.54;280.98;0.00;0.00;0.62;;;;;17.40;4.30;;;;;;2284451;60;1020;-86
2022/10/26 03:17:09;107295.00;0.36;186.16;0.00;0.00;0.62;;;;;17.30;6.10;;;;;;2284585;60;1078;-88
2022/10/26 03:19:36;74408.00;0.25;129.38;0.00;0.00;0.62;;;;;16.80;6.80;;;;;;2284528;60;1055;-86
2022/10/26 03:22:04;411848.00;1.37;710.17;153760.00;0.51;266.29;;;;;16.40;7.60;;;;;;2284435;60;1070;-88
2022/10/26 03:24:31;0.00;0.00;0.62;0.00;0.00;0.62;;;;;16.00;9.40;;;;;;2284461;60;1058;-88
2022/10/26 03:26:58;326132.00;1.09;562.84;0.00;0.00;0.62;;;;;15.60;10.40;;;;;;2284399;60;1454;-88
2022/10/26 03:29:25;329498.00;1.10;568.62;18476.00;0.06;32.63;;;;;15.50;12.40;;;;;;2284460;60;972;-88
2022/10/26 03:31:53;299684.00;1.00;517.38;37736.00;0.13;65.97;;;;;15.50;13.80;;;;;;2284394;60;2002;-88
2022/10/26 03:34:20;134524.00;0.45;233.13;0.00;0.00;0.62;;;;;15.50;13.00;;;;;;2284488;60;1508;-88
2022/10/26 03:36:47;423956.00;1.41;730.99;148270.00;0.49;256.83;;;;;15.80;11.50;;;;;;2284440;60;1301;-89
2022/10/26 03:39:15;82470.00;0.27;143.30;14785.00;0.05;26.24;;;;;16.30;10.70;;;;;;2284457;60;1040;-86
2022/10/26 03:41:43;40405.00;0.13;70.59;0.00;0.00;0.62;;;;;16.90;10.20;;;;;;2284459;60;1078;-88
2022/10/26 03:44:09;66155.00;0.22;115.12;0.00;0.00;0.62;;;;;17.40;7.70;;;;;;2284406;60;1020;-89
2022/10/26 03:46:36;66532.00;0.22;115.77;0.00;0.00;0.62;;;;;17.70;8.10;;;;;;2284492;60;1355;-87
2022/10/26 03:49:03;159134.00;0.53;275.55;633.00;0.00;1.72;;;;;17.80;5.70;;;;;;2284473;60;923;-87
2022/10/26 03:51:30;205389.00;0.68;355.20;0.00;0.00;0.62;;;;;17.90;5.50;;;;;;2284469;60;1994;-88
2022/10/26 03:53:57;377920.00;1.26;651.85;81798.00;0.27;142.14;;;;;17.80;6.60;;;;;;2284413;60;1676;-90
2022/10/26 03:56:25;73948.00;0.25;128.58;0.00;0.00;0.62;;;;;17.90;6.80;;;;;;2284374;60;1478;-87
2022/10/26 03:58:52;132540.00;0.44;229.71;0.00;0.00;0.62;;;;;17.80;6.10;;;;;;2284332;60;1004;-86
2022/10/26 04:01:19;137438.00;0.46;238.15;0.00;0.00;0.62;;;;;17.90;6.10;;;;;;2284420;60;919;-88
2022/10/26 04:03:46;95168.00;0.32;165.23;0.00;0.00;0.62;;;;;17.80;5.40;;;;;;2284458;60;1078;-87
2022/10/26 04:06:13;134649.00;0.45;233.35;0.00;0.00;0.62;;;;;17.60;5.00;;;;;;2284427;60;1419;-88
2022/10/26 04:08:40;151059.00;0.50;261.63;0.00;0.00;0.62;;;;;17.10;8.30;;;;;;2284496;60;904;-88
2022/10/26 04:11:07;153843.00;0.51;266.43;0.00;0.00;0.62;;;;;17.40;7.20;;;;;;2284364;60;1988;-89
2022/10/26 04:13:35;74.00;0.00;0.75;0.00;0.00;0.62;;;;;17.30;6.20;;;;;;2284429;60;1086;-88
2022/10/26 04:16:02;159301.00;0.53;275.83;0.00;0.00;0.62;;;;;17.30;7.60;;;;;;2284326;60;1284;-89
2022/10/26 04:18:29;90394.00;0.30;156.99;0.00;0.00;0.62;;;;;17.40;6.90;;;;;;2284453;60;1086;-88
2022/10/26 04:20:56;8021.00;0.03;14.52;0.00;0.00;0.62;;;;;17.60;7.10;;;;;;2284390;60;908;-88
2022/10/26 04:23:22;39756.00;0.13;69.47;0.00;0.00;0.62;;;;;17.70;5.70;;;;;;2284406;60;1001;-88
2022/10/26 04:25:49;226437.00;0.75;391.42;0.00;0.00;0.62;;;;;17.80;7.00;;;;;;2284300;60;1266;-89
2022/10/26 04:28:16;152196.00;0.51;263.59;0.00;0.00;0.62;;;;;17.90;5.50;;;;;;2284316;60;1019;-87
2022/10/26 04:30:44;18405.00;0.06;32.51;0.00;0.00;0.62;;;;;17.80;6.60;;;;;;2284306;60;1071;-87
2022/10/26 04:33:11;0.00;0.00;0.62;0.00;0.00;0.62;;;;;18.00;5.50;;;;;;2284374;60;1927;-86
2022/10/26 04:35:38;318014.00;1.06;548.88;33603.00;0.11;58.82;;;;;17.90;5.90;;;;;;2284280;60;1549;-88
2022/10/26 04:38:07;382346.00;1.27;659.46;38554.00;0.13;67.39;;;;;18.00;4.70;;;;;;2284295;60;1049;-88
2022/10/26 04:40:35;135893.00;0.45;235.49;0.00;0.00;0.62;;;;;18.10;5.70;;;;;;2284333;60;1546;-86
2022/10/26 04:43:02;65432.00;0.22;113.87;0.00;0.00;0.62;;;;;18.30;6.00;;;;;;2284353;60;1103;-89
2022/10/26 04:45:29;132879.00;0.44;230.29;0.00;0.00;0.62;;;;;18.30;4.30;;;;;;2284312;60;1366;-88
2022/10/26 04:48:03;23407.00;0.08;41.17;0.00;0.00;0.62;;;;;18.20;4.70;;;;;;2284282;60;1725;-88
2022/10/26 04:50:29;87836.00;0.29;152.57;0.00;0.00;0.62;;;;;18.40;5.40;;;;;;2284397;60;1073;-87
2022/10/26 04:52:56;381853.00;1.27;658.61;88569.00;0.30;153.84;;;;;18.40;5.00;;;;;;2284287;60;1992;-88
2022/10/26 04:55:23;184184.00;0.61;318.69;30234.00;0.10;52.99;;;;;18.40;4.70;;;;;;2284085;60;1239;-87
2022/10/26 04:57:50;199262.00;0.66;344.65;0.00;0.00;0.62;;;;;18.50;4.40;;;;;;2284286;60;1086;-90
2022/10/26 05:00:17;153666.00;0.51;266.13;0.00;0.00;0.62;;;;;18.60;3.40;;;;;;2284295;60;991;-89
2022/10/26 05:02:44;169207.00;0.56;292.90;0.00;0.00;0.62;;;;;18.40;3.40;;;;;;2284313;60;1020;-86
2022/10/26 05:05:12;39138.00;0.13;68.40;0.00;0.00;0.62;;;;;17.90;4.60;;;;;;2284183;60;1356;-88
2022/10/26 05:07:39;96836.00;0.32;168.11;0.00;0.00;0.62;;;;;17.40;5.30;;;;;;2284235;60;1026;-89
2022/10/26 05:10:07;118200.00;0.39;204.98;0.00;0.00;0.62;;;;;17.50;6.50;;;;;;2284319;60;925;-88
2022/10/26 05:12:34;127049.00;0.42;220.24;29190.00;0.10;51.18;;;;;17.10;6.30;;;;;;2284635;60;1992;-87
2022/10/26 05:15:01;44816.00;0.15;78.22;0.00;0.00;0.62;;;;;17.30;6.50;;;;;;2284888;60;1687;-87
2022/10/26 05:17:28;221305.00;0.74;382.59;0.00;0.00;0.62;;;;;17.50;6.70;;;;;;2284977;60;1102;-87
2022/10/26 05:19:57;138423.00;0.46;239.85;0.00;0.00;0.62;;;;;17.70;7.80;;;;;;2284874;60;1615;-88
2022/10/26 05:22:25;100216.00;0.33;173.94;0.00;0.00;0.62;;;;;17.50;6.30;;;;;;2284946;60;1214;-88
2022/10/26 05:29:54;549938.00;1.83;947.85;0.00;0.00;0.62;;;;;17.70;5.70;;;;;;2278127;61;1416;-88
2022/10/26 05:32:21;190470.00;0.63;329.52;0.00;0.00;0.62;;;;;17.60;5.80;;;;;;2276651;61;2002;-88
2022/10/26 05:34:48;128924.00;0.43;223.47;0.00;0.00;0.62;;;;;17.60;7.40;;;;;;2276601;61;1388;-88
2022/10/26 05:37:15;121103.00;0.40;209.98;0.00;0.00;0.62;;;;;17.90;7.50;;;;;;2276662;61;1555;-88
2022/10/26 05:39:43;129440.00;0.43;224.36;0.00;0.00;0.62;;;;;18.00;6.40;;;;;;2276720;61;928;-87
2022/10/26 05:42:10;488414.00;1.63;841.88;76171.00;0.25;132.42;;;;;17.90;5.10;;;;;;2276720;61;968;-85
2022/10/26 05:44:37;330322.00;1.10;570.04;0.00;0.00;0.62;;;;;18.00;6.00;;;;;;2276474;61;1560;-87
2022/10/26 05:47:04;264583.00;0.88;457.03;0.00;0.00;0.62;;;;;18.00;6.50;;;;;;2276346;61;1308;-85
2022/10/26 05:52:07;504372.00;1.68;869.35;0.00;0.00;0.62;;;;;18.30;5.90;;;;;;1989364;59;1912;-86
2022/10/26 05:54:34;377361.00;1.26;650.89;84468.00;0.28;146.75;;;;;18.40;6.30;;;;;;2280391;61;2142;-88
2022/10/26 05:57:06;247496.00;0.82;427.64;21328.00;0.07;37.57;;;;;18.50;5.90;;;;;;2280377;61;1537;-89
2022/10/26 06:04:37;701442.00;2.34;1209.74;0.00;0.00;0.62;;;;;18.90;5.40;;;;;;2282101;61;1284;-88
2022/10/26 06:07:10;360133.00;1.20;621.28;0.00;0.00;0.62;;;;;19.00;3.70;;;;;;2280638;61;1577;-89
2022/10/26 06:14:37;1056966.00;3.52;1833.63;0.00;0.00;0.62;;;;;18.10;4.80;;;;;;2282974;61;1310;-92
2022/10/26 06:42:16;883472.00;2.94;1527.11;745.00;0.00;1.91;;;;;18.80;5.40;;;;;;2026177;39;3440;-89
2022/10/26 06:44:44;237009.00;0.79;409.61;0.00;0.00;0.62;;;;;19.10;5.30;;;;;;2282215;60;1425;-88
2022/10/26 06:47:18;165093.00;0.55;285.81;0.00;0.00;0.62;;;;;19.30;5.10;;;;;;2276302;61;980;-88
2022/10/26 07:27:08;1577813.00;5.26;2790.41;163146.00;0.54;282.46;;;;;19.20;4.80;;;;;;2283110;61;1254;-90
2022/10/26 08:11:59;1085000.00;3.62;1883.62;0.00;0.00;0.62;;;;;20.90;2.40;;;;;;802338;56;3632;-88
2022/10/26 08:37:05;1519727.00;5.07;2680.30;0.00;0.00;0.62;;;;;20.90;2.10;;;;;;2282245;61;1322;-91
2022/10/26 08:44:36;836418.00;2.79;1444.71;0.00;0.00;0.62;;;;;20.60;2.80;;;;;;2282710;61;1294;-90
2022/10/26 09:07:30;1019258.00;3.40;1766.61;0.00;0.00;0.62;;;;;21.60;2.60;;;;;;2340895;40;3450;-89
2022/10/26 10:18:00;1536666.00;5.12;2712.31;65788.00;0.22;114.48;;;;;22.30;2.10;;;;;;2271147;61;1368;-89
2022/10/26 10:20:32;139197.00;0.46;241.19;0.00;0.00;0.62;;;;;22.30;2.10;;;;;;2269128;61;1049;-90
2022/10/26 10:23:01;133291.00;0.44;231.00;0.00;0.00;0.62;;;;;22.60;1.90;;;;;;2269077;61;1600;-90
2022/10/26 10:28:00;1349692.00;4.50;2363.34;63367.00;0.21;110.30;;;;;22.90;1.00;;;;;;2278638;61;1262;-88
2022/10/26 10:30:31;420900.00;1.40;725.74;60061.00;0.20;104.58;;;;;22.70;1.00;;;;;;2277179;61;1125;-91
2022/10/26 10:45:31;1570688.00;5.24;2776.85;59834.00;0.20;104.19;;;;;22.40;1.00;;;;;;1953733;56;3581;-90
2022/10/26 11:08:13;1179989.00;3.93;2054.08;0.00;0.00;0.62;;;;;23.40;1.00;;;;;;1551768;40;3594;-87
2022/10/26 11:18:42;637333.00;2.12;1098.73;0.00;0.00;0.62;;;;;23.60;1.00;;;;;;2287142;61;1437;-88
2022/10/26 11:23:48;1105336.00;3.68;1919.97;57537.00;0.19;100.22;;;;;23.80;1.00;;;;;;2287004;61;1301;-92
2022/10/26 11:57:46;1073158.00;3.58;1862.49;0.00;0.00;0.62;;;;;24.00;1.00;;;;;;2306060;40;3469;-87
2022/10/26 12:02:47;893459.00;2.98;1544.63;0.00;0.00;0.62;;;;;24.70;1.00;;;;;;2281993;60;1406;-88
2022/10/26 12:15:28;739938.00;2.47;1276.57;30545.00;0.10;53.53;;;;;24.50;1.00;;;;;;2281729;61;1404;-87
2022/10/26 12:25:25;740295.00;2.47;1277.19;68725.00;0.23;119.56;;;;;25.10;1.00;;;;;;2282560;61;1409;-89
2022/10/26 12:27:54;118769136.00;395.90;67866096.00;64298.00;0.21;111.91;;;;;25.20;1.00;;;;;;2280859;61;1117;-87
2022/10/26 12:30:30;397911.00;1.33;686.21;75323.00;0.25;130.96;;;;;25.20;1.00;;;;;;2280884;61;1138;-88
2022/10/26 12:35:44;691636.00;2.31;1192.74;57604.00;0.19;100.33;;;;;25.20;1.00;;;;;;2282407;60;1335;-88
2022/10/26 12:38:50;126554.00;0.42;219.39;0.00;0.00;0.62;;;;;25.10;1.00;;;;;;2280915;61;1620;-89
2022/10/26 12:41:24;66549.00;0.22;115.80;0.00;0.00;0.62;;;;;25.20;1.00;;;;;;2280950;61;1163;-89
2022/10/26 12:43:56;19604.00;0.07;34.58;0.00;0.00;0.62;;;;;25.20;1.00;;;;;;2286359;39;3575;-88
2022/10/26 12:48:52;625401.00;2.08;1078.10;0.00;0.00;0.62;;;;;25.50;1.00;;;;;;2282449;60;1400;-89
2022/10/26 12:51:42;86898.00;0.29;150.95;0.00;0.00;0.62;;;;;25.70;1.00;;;;;;2280927;60;912;-89
2022/10/26 12:54:29;443022.00;1.48;763.78;54949.00;0.18;95.74;;;;;25.70;1.00;;;;;;2280860;60;1907;-90
2022/10/26 12:57:10;229008.00;0.76;395.84;0.00;0.00;0.62;;;;;25.90;1.00;;;;;;2280888;61;1365;-88
2022/10/26 12:59:47;524702.00;1.75;904.36;52284.00;0.17;91.14;;;;;25.90;1.00;;;;;;2280910;61;993;-90
2022/10/26 13:05:14;969273.00;3.23;1678.13;58917.00;0.20;102.60;;;;;26.30;1.00;;;;;;2274387;61;1428;-88
2022/10/26 13:07:42;267049.00;0.89;461.27;0.00;0.00;0.62;;;;;26.40;1.00;;;;;;2268028;61;1063;-88
2022/10/26 13:10:21;514852.00;1.72;887.40;75895.00;0.25;131.95;;;;;26.20;1.00;;;;;;2268661;61;935;-89
2022/10/26 13:12:53;292910.00;0.98;505.73;65131.00;0.22;113.35;;;;;25.90;1.00;;;;;;2268539;61;1919;-88
2022/10/26 13:15:28;725276.00;2.42;1251.10;143695.00;0.48;248.94;;;;;25.60;1.00;;;;;;2276940;55;3779;-88
2022/10/26 13:18:08;218885.00;0.73;378.43;59855.00;0.20;104.23;;;;;25.30;1.00;;;;;;2280962;61;1007;-89
2022/10/26 13:28:42;867110.00;2.89;1498.43;60221.00;0.20;104.86;;;;;24.90;1.00;;;;;;2286747;60;1389;-88
2022/10/26 13:31:40;367480.00;1.22;633.91;31835.00;0.11;55.76;;;;;24.70;1.00;;;;;;2284797;60;927;-89
2022/10/26 13:34:14;256216.00;0.85;442.64;0.00;0.00;0.62;;;;;24.50;1.00;;;;;;2284492;60;1989;-89
2022/10/26 13:36:45;152246.00;0.51;263.68;0.00;0.00;0.62;;;;;24.70;1.00;;;;;;2277666;60;1414;-90
2022/10/26 13:39:19;22788.00;0.08;40.10;0.00;0.00;0.62;;;;;25.10;1.00;;;;;;2284818;60;1687;-89
2022/10/26 13:41:49;294487.00;0.98;508.44;0.00;0.00;0.62;;;;;25.30;1.00;;;;;;2292023;55;3794;-87
2022/10/26 13:44:25;412843.00;1.38;711.88;109217.00;0.36;189.48;;;;;25.10;1.00;;;;;;2284852;60;1117;-88
2022/10/26 13:46:57;396864.00;1.32;684.41;61920.00;0.21;107.80;;;;;25.00;1.00;;;;;;2284862;60;1515;-87
2022/10/26 13:49:30;434157.00;1.45;748.53;65326.00;0.22;113.68;;;;;25.10;1.00;;;;;;2287299;39;3684;-89
2022/10/26 13:52:02;119374.00;0.40;207.00;0.00;0.00;0.62;;;;;25.20;1.00;;;;;;2285445;61;2004;-88
2022/10/26 13:54:37;290003.00;0.97;500.73;69180.00;0.23;120.34;;;;;25.40;1.00;;;;;;2284746;60;2006;-89
2022/10/26 13:57:15;271636.00;0.91;469.16;0.00;0.00;0.62;;;;;25.30;1.00;;;;;;2284689;60;1318;-89
2022/10/26 13:59:45;66225.00;0.22;115.24;0.00;0.00;0.62;;;;;24.90;1.00;;;;;;2284790;60;1094;-89
2022/10/26 14:02:23;329267.00;1.10;568.23;53790.00;0.18;93.74;;;;;24.80;1.00;;;;;;2284666;60;916;-88
2022/10/26 14:04:54;218026.00;0.73;376.95;0.00;0.00;0.62;;;;;24.90;1.00;;;;;;2284889;60;1374;-88
2022/10/26 14:07:25;207619.00;0.69;359.04;0.00;0.00;0.62;;;;;25.00;1.00;;;;;;2284729;60;964;-87
2022/10/26 14:09:54;149471.00;0.50;258.90;0.00;0.00;0.62;;;;;25.10;1.00;;;;;;2284813;60;1103;-88
2022/10/26 14:12:21;61632.00;0.21;107.30;0.00;0.00;0.62;;;;;25.00;1.00;;;;;;2284775;60;1780;-89
2022/10/26 14:14:51;314316.00;1.05;542.53;0.00;0.00;0.62;;;;;24.80;1.00;;;;;;2284699;60;2009;-88
2022/10/26 14:17:21;126977.00;0.42;220.12;0.00;0.00;0.62;;;;;24.70;1.00;;;;;;2284645;60;1030;-88
2022/10/26 14:19:49;125387.00;0.42;217.37;0.00;0.00;0.62;;;;;24.60;1.00;;;;;;2284701;60;1053;-90
2022/10/26 14:22:22;24169.00;0.08;42.49;0.00;0.00;0.62;;;;;24.70;1.00;;;;;;2284536;60;2008;-88
2022/10/26 14:24:53;444390.00;1.48;766.13;111449.00;0.37;193.33;;;;;24.70;1.00;;;;;;2284658;60;1397;-88
2022/10/26 14:27:22;352303.00;1.17;607.82;0.00;0.00;0.62;;;;;24.70;1.00;;;;;;2284592;60;2260;-87
2022/10/26 14:29:52;29620.00;0.10;51.93;0.00;0.00;0.62;;;;;24.80;1.00;;;;;;2284746;60;1027;-87
2022/10/26 14:32:29;192181.00;0.64;332.46;0.00;0.00;0.62;;;;;24.70;1.00;;;;;;2284697;60;1580;-88
2022/10/26 14:34:56;284502.00;0.95;491.28;0.00;0.00;0.62;;;;;24.10;1.00;;;;;;2284654;60;1998;-88
2022/10/26 14:37:33;340221.00;1.13;587.05;74827.00;0.25;130.10;;;;;24.00;1.00;;;;;;2284693;60;1081;-88
2022/10/26 14:40:00;314853.00;1.05;543.45;0.00;0.00;0.62;;;;;24.10;1.00;;;;;;2284571;60;1725;-88
2022/10/26 14:42:31;262137.00;0.87;452.82;37811.00;0.13;66.10;;;;;24.20;1.00;;;;;;2284555;60;1060;-88
2022/10/26 14:45:01;138581.00;0.46;240.12;0.00;0.00;0.62;;;;;24.30;1.00;;;;;;2284553;60;1478;-88
2022/10/26 14:47:31;92989.00;0.31;161.47;0.00;0.00;0.62;;;;;24.50;1.00;;;;;;2284639;60;987;-89
2022/10/26 14:50:00;551362.00;1.84;950.31;26263.00;0.09;46.11;;;;;24.40;1.00;;;;;;2284608;60;1592;-87
2022/10/26 14:52:31;216203.00;0.72;373.81;0.00;0.00;0.62;;;;;24.30;1.00;;;;;;2284619;60;1143;-88
2022/10/26 14:55:02;286270.00;0.95;494.32;0.00;0.00;0.62;;;;;24.40;1.00;;;;;;2284570;60;2013;-88
2022/10/26 14:57:36;450112.00;1.50;775.98;0.00;0.00;0.62;;;;;24.50;1.00;;;;;;2297719;39;3586;-89
2022/10/26 15:00:15;275778.00;0.92;476.28;0.00;0.00;0.62;;;;;24.50;1.00;;;;;;2284421;60;1432;-87
2022/10/26 15:02:43;223092.00;0.74;385.66;0.00;0.00;0.62;;;;;24.50;1.00;;;;;;2284277;60;1031;-89
2022/10/26 15:07:42;1032635.00;3.44;1790.36;0.00;0.00;0.62;;;;;24.40;1.00;;;;;;2286557;60;1417;-89
2022/10/26 15:12:39;774687.00;2.58;1337.01;76600.00;0.26;133.16;;;;;24.30;1.00;;;;;;2282120;60;1414;-86
2022/10/26 15:15:23;444791.00;1.48;766.82;68894.00;0.23;119.85;;;;;24.20;1.00;;;;;;2280295;60;2019;-86
2022/10/26 15:17:53;386175.00;1.29;666.04;62736.00;0.21;109.21;;;;;24.30;1.00;;;;;;2280331;61;1147;-89
2022/10/26 15:27:52;1452053.00;4.84;2553.22;113442.00;0.38;196.77;;;;;24.30;1.00;;;;;;2273964;61;1423;-89
2022/10/26 15:32:50;1514680.00;5.05;2670.77;134274.00;0.45;232.70;;;;;24.10;1.00;;;;;;2278418;61;1419;-88
2022/10/26 15:35:38;451376.00;1.50;778.15;109030.00;0.36;189.16;;;;;24.10;1.00;;;;;;2276265;61;1935;-88
2022/10/26 15:38:05;222299.00;0.74;384.30;0.00;0.00;0.62;;;;;24.10;1.00;;;;;;2276300;61;1148;-88
2022/10/26 15:50:40;851719.00;2.84;1471.48;80170.00;0.27;139.33;;;;;23.80;1.00;;;;;;2281953;61;1257;-90
2022/10/26 15:53:22;466737.00;1.56;804.58;61426.00;0.20;106.94;;;;;23.80;1.00;;;;;;2280257;61;1631;-87
2022/10/26 15:55:51;510630.00;1.70;880.13;102704.00;0.34;178.24;;;;;23.90;1.00;;;;;;2280127;61;1524;-89
2022/10/26 15:58:18;69765.00;0.23;121.35;0.00;0.00;0.62;;;;;23.90;1.00;;;;;;2280326;61;1182;-87
2022/10/26 16:00:45;291740.00;0.97;503.72;38246.00;0.13;66.85;;;;;23.80;1.00;;;;;;2280307;61;1426;-88
2022/10/26 16:03:24;356799.00;1.19;615.55;0.00;0.00;0.62;;;;;23.70;1.00;;;;;;2280118;61;1999;-89
2022/10/26 16:10:59;570159.00;1.90;982.72;0.00;0.00;0.62;;;;;23.40;1.00;;;;;;2282320;61;1416;-88
2022/10/26 16:13:26;131470.00;0.44;227.86;0.00;0.00;0.62;;;;;23.30;1.00;;;;;;2280236;61;1993;-88
2022/10/26 16:15:53;476198.00;1.59;820.85;0.00;0.00;0.62;;;;;23.20;1.00;;;;;;2280172;61;1544;-88
2022/10/26 16:18:20;256402.00;0.85;442.96;0.00;0.00;0.62;;;;;23.00;1.00;;;;;;2280308;61;1229;-88
2022/10/26 16:20:47;253541.00;0.85;438.04;0.00;0.00;0.62;;;;;23.00;1.00;;;;;;2280128;61;1619;-89
2022/10/26 16:23:15;140202.00;0.47;242.92;0.00;0.00;0.62;;;;;22.90;1.00;;;;;;2280174;61;1095;-88
2022/10/26 16:25:44;153193.00;0.51;265.31;0.00;0.00;0.62;;;;;23.00;1.00;;;;;;2280148;61;1320;-89
2022/10/26 16:28:14;87965.00;0.29;152.79;0.00;0.00;0.62;;;;;23.00;1.00;;;;;;2280245;61;1505;-89